Time;durP1;ratioP1;P1;durP2;ratioP2;P2;SDS_P1;SDS_P2;PMS_P1;PMS_P2;Temp;Humidity;BMP_temperature;BMP_pressure;BME280_temperature;BME280_humidity;BME280_pressure;Samples;Min_cycle;Max_cycle;Signal;HPM_P1;HPM_P2
2022/08/31 00:04:05;;;;;;;16.58;10.75;;;;;;;21.12;61.57;94674.16;4206937;28;20052;-58
2022/08/31 00:06:06;;;;;;;15.68;10.85;;;;;;;21.01;62.23;94683.72;4201636;28;20048;-72
2022/08/31 00:08:08;;;;;;;14.25;10.90;;;;;;;20.95;62.44;94684.59;4203567;28;20049;-70
2022/08/31 00:10:16;;;;;;;15.52;11.52;;;;;;;20.96;62.66;94684.38;4196850;28;20056;-75
2022/08/31 00:12:19;;;;;;;12.88;10.60;;;;;;;21.05;62.39;94684.88;4198042;28;20044;-70
2022/08/31 00:14:20;;;;;;;15.60;11.25;;;;;;;21.13;62.07;94695.25;4213828;28;20407;-73
2022/08/31 00:16:22;;;;;;;14.32;10.60;;;;;;;21.21;61.81;94683.47;4211147;28;20077;-68
2022/08/31 00:18:24;;;;;;;11.93;10.73;;;;;;;21.26;61.75;94684.41;4195776;28;20048;-71
2022/08/31 00:20:27;;;;;;;14.60;10.48;;;;;;;21.27;61.47;94680.72;4196051;28;20056;-68
2022/08/31 00:22:35;;;;;;;15.15;11.23;;;;;;;21.29;61.65;94683.13;4194919;28;20048;-71
2022/08/31 00:24:36;;;;;;;14.48;11.10;;;;;;;21.32;61.77;94676.56;4208379;28;20048;-70
2022/08/31 00:26:39;;;;;;;12.57;10.20;;;;;;;21.36;61.43;94678.53;4199926;28;20805;-70
2022/08/31 00:28:41;;;;;;;15.10;10.27;;;;;;;21.41;61.34;94678.69;4211736;28;20052;-70
2022/08/31 00:30:44;;;;;;;14.18;10.27;;;;;;;21.45;61.09;94679.88;4211852;28;20132;-71
2022/08/31 00:32:45;;;;;;;12.50;10.73;;;;;;;21.48;61.37;94671.41;4198305;28;20052;-72
2022/08/31 00:34:48;;;;;;;13.17;10.17;;;;;;;21.50;61.11;94676.53;4210590;28;20603;-71
2022/08/31 00:36:50;;;;;;;16.60;10.15;;;;;;;21.54;60.92;94683.03;4203063;28;20037;-72
2022/08/31 00:38:52;;;;;;;12.30;9.85;;;;;;;21.54;60.96;94687.56;4208414;28;20059;-72
2022/08/31 00:40:54;;;;;;;13.63;9.38;;;;;;;21.45;61.05;94685.19;4205488;28;20052;-73
2022/08/31 00:42:58;;;;;;;11.30;9.57;;;;;;;21.18;62.04;94684.72;4205352;28;20052;-73
2022/08/31 00:44:59;;;;;;;13.10;9.70;;;;;;;21.00;62.54;94687.41;4198486;28;20075;-69
2022/08/31 00:47:01;;;;;;;12.93;9.88;;;;;;;20.96;62.87;94686.25;4205351;28;20251;-74
2022/08/31 00:49:16;;;;;;;10.95;9.82;;;;;;;21.01;62.84;94686.38;4199732;28;20052;-70
2022/08/31 00:51:18;;;;;;;14.93;10.32;;;;;;;21.02;62.88;94682.69;4195896;28;20080;-71
2022/08/31 00:53:20;;;;;;;15.23;10.20;;;;;;;20.92;62.88;94685.88;4194743;28;20109;-72
2022/08/31 00:55:26;;;;;;;12.70;10.50;;;;;;;20.90;63.07;94687.13;4205030;28;20048;-73
2022/08/31 00:57:31;;;;;;;14.15;10.65;;;;;;;20.65;63.94;94685.38;4210420;28;20052;-70
2022/08/31 00:59:36;;;;;;;14.15;11.13;;;;;;;20.64;64.19;94689.88;4211019;28;20764;-71
2022/08/31 01:01:37;;;;;;;19.42;11.10;;;;;;;20.72;64.01;94694.09;4208413;28;20538;-69
2022/08/31 01:03:39;;;;;;;15.43;10.80;;;;;;;20.78;63.91;94695.03;4204422;28;20393;-72
2022/08/31 01:05:41;;;;;;;15.77;10.52;;;;;;;20.83;63.65;94688.03;4212274;28;20048;-71
2022/08/31 01:07:46;;;;;;;11.63;10.45;;;;;;;20.89;63.40;94685.50;4209652;28;20114;-71
2022/08/31 01:09:48;;;;;;;12.55;10.75;;;;;;;20.99;63.45;94689.28;4211999;28;20451;-71
2022/08/31 01:11:56;;;;;;;12.30;9.70;;;;;;;21.10;63.26;94692.19;4211075;28;20056;-71
2022/08/31 01:13:59;;;;;;;13.40;10.05;;;;;;;21.15;63.14;94687.03;4201541;28;20485;-71
2022/08/31 01:16:05;;;;;;;11.98;10.70;;;;;;;21.21;62.60;94688.81;4203441;28;20729;-70
2022/08/31 01:18:08;;;;;;;12.65;10.50;;;;;;;21.24;62.38;94683.81;4209367;28;20040;-70
2022/08/31 01:20:24;;;;;;;17.25;11.20;;;;;;;21.28;62.39;94689.50;4211525;28;20063;-69
2022/08/31 01:22:29;;;;;;;12.75;10.45;;;;;;;21.28;62.33;94690.31;4221894;28;20101;-71
2022/08/31 01:24:31;;;;;;;15.93;10.60;;;;;;;21.27;62.46;94693.19;4194820;28;20109;-71
2022/08/31 01:26:33;;;;;;;13.60;9.77;;;;;;;21.25;62.60;94697.94;4204990;28;20483;-71
2022/08/31 01:28:35;;;;;;;14.75;10.10;;;;;;;21.18;62.65;94694.56;4209509;28;20055;-72
2022/08/31 01:30:39;;;;;;;13.38;10.75;;;;;;;21.02;62.90;94693.34;4207421;28;20062;-70
2022/08/31 01:32:40;;;;;;;11.68;9.95;;;;;;;20.83;63.59;94688.03;4194877;28;20102;-71
2022/08/31 01:34:42;;;;;;;12.25;10.30;;;;;;;20.85;64.01;94690.47;4211301;28;20130;-73
2022/08/31 01:36:46;;;;;;;12.60;10.20;;;;;;;20.91;63.79;94688.75;4210301;28;20044;-71
2022/08/31 01:38:48;;;;;;;12.95;9.02;;;;;;;20.99;63.60;94686.63;4208665;28;20781;-69
2022/08/31 01:40:56;;;;;;;14.13;10.38;;;;;;;21.05;63.38;94692.88;4208105;28;20048;-71
2022/08/31 01:42:58;;;;;;;11.98;10.25;;;;;;;21.04;63.28;94684.09;4206098;28;20041;-58
2022/08/31 01:45:00;;;;;;;13.48;10.27;;;;;;;20.99;63.46;94691.09;4194277;28;20056;-59
2022/08/31 01:47:01;;;;;;;13.75;10.82;;;;;;;21.02;63.20;94691.47;4202948;28;20389;-58
2022/08/31 01:49:03;;;;;;;14.93;10.10;;;;;;;21.06;63.55;94681.19;4211140;28;20381;-57
2022/08/31 01:51:05;;;;;;;13.85;10.77;;;;;;;21.06;63.36;94686.53;4210382;28;20097;-59
2022/08/31 01:53:08;;;;;;;16.25;11.27;;;;;;;21.04;63.63;94685.94;4210019;28;20048;-58
2022/08/31 01:55:10;;;;;;;17.38;10.75;;;;;;;21.05;63.63;94690.22;4209612;28;20101;-59
2022/08/31 01:57:14;;;;;;;16.38;10.93;;;;;;;21.06;63.48;94686.53;4210974;28;20545;-59
2022/08/31 01:59:18;;;;;;;18.45;10.55;;;;;;;21.08;63.53;94681.78;4209958;28;20631;-57
2022/08/31 02:01:24;;;;;;;15.07;10.60;;;;;;;21.07;63.28;94690.81;4210281;28;20752;-59
2022/08/31 02:03:35;;;;;;;12.52;10.57;;;;;;;21.01;63.59;94686.38;4209375;28;20125;-58
2022/08/31 02:05:37;;;;;;;16.20;10.98;;;;;;;21.02;63.58;94690.69;4209901;28;20132;-60
2022/08/31 02:07:39;;;;;;;12.02;10.18;;;;;;;21.01;63.51;94689.03;4210064;28;20044;-58
2022/08/31 02:09:41;;;;;;;13.93;10.07;;;;;;;20.96;63.58;94689.72;4203626;28;20101;-61
2022/08/31 02:11:43;;;;;;;13.88;10.75;;;;;;;20.96;63.60;94686.25;4201133;28;20052;-58
2022/08/31 02:13:45;;;;;;;12.30;9.98;;;;;;;20.91;63.76;94684.25;4209607;28;20052;-59
2022/08/31 02:15:47;;;;;;;16.35;12.77;;;;;;;20.68;64.83;94679.59;4213365;28;20121;-59
2022/08/31 02:17:48;;;;;;;17.85;12.15;;;;;;;20.44;65.67;94682.06;4206262;28;20048;-59
2022/08/31 02:19:53;;;;;;;14.55;10.93;;;;;;;20.10;67.39;94683.41;4204357;28;20051;-57
2022/08/31 02:21:54;;;;;;;18.13;12.05;;;;;;;19.88;68.11;94687.50;4210126;28;20048;-58
2022/08/31 02:23:56;;;;;;;13.70;11.38;;;;;;;19.81;68.05;94688.38;4212153;28;20098;-58
2022/08/31 02:25:58;;;;;;;15.57;12.57;;;;;;;19.91;68.08;94692.38;4213780;28;20389;-58
2022/08/31 02:28:00;;;;;;;17.30;12.00;;;;;;;20.03;67.62;94688.00;4202401;28;20685;-59
2022/08/31 02:30:09;;;;;;;15.23;12.20;;;;;;;20.19;67.45;94686.63;4198577;28;20044;-57
2022/08/31 02:32:11;;;;;;;17.35;12.30;;;;;;;20.29;66.91;94681.63;4203977;28;20056;-60
2022/08/31 02:34:20;;;;;;;16.92;11.93;;;;;;;20.41;66.52;94687.84;4212354;28;20632;-59
2022/08/31 02:36:23;;;;;;;16.70;12.50;;;;;;;20.52;66.17;94680.16;4202234;28;20106;-57
2022/08/31 02:38:26;;;;;;;15.63;12.30;;;;;;;20.61;65.96;94677.00;4197821;28;20136;-57
2022/08/31 02:40:27;;;;;;;13.63;11.40;;;;;;;20.68;65.86;94681.44;4198774;28;20676;-70
2022/08/31 02:42:29;;;;;;;17.13;11.55;;;;;;;20.71;65.80;94689.78;4212688;28;20058;-69
2022/08/31 02:44:51;;;;;;;17.40;12.45;;;;;;;20.71;65.84;94675.66;4197890;28;20067;-70
2022/08/31 02:46:52;;;;;;;16.65;12.75;;;;;;;20.42;66.71;94683.34;4197947;28;20040;-72
2022/08/31 02:48:54;;;;;;;13.70;12.30;;;;;;;20.13;67.87;94680.31;4198219;28;20044;-71
2022/08/31 02:51:03;;;;;;;16.67;12.88;;;;;;;20.11;68.26;94678.91;4199620;28;20150;-70
2022/08/31 02:53:05;;;;;;;15.55;12.57;;;;;;;20.13;68.19;94674.19;4197271;28;20059;-70
2022/08/31 02:55:06;;;;;;;14.20;12.07;;;;;;;20.21;67.99;94673.91;4198243;28;20059;-73
2022/08/31 02:57:08;;;;;;;17.10;12.93;;;;;;;20.26;67.62;94671.41;4198137;28;20524;-71
2022/08/31 02:59:10;;;;;;;16.02;12.38;;;;;;;20.34;67.45;94671.13;4199531;28;20057;-70
2022/08/31 03:01:11;;;;;;;13.98;12.02;;;;;;;20.39;67.32;94675.78;4202405;28;20059;-68
2022/08/31 03:03:14;;;;;;;18.45;12.23;;;;;;;20.37;67.06;94672.50;4207373;28;20105;-70
2022/08/31 03:05:16;;;;;;;15.02;12.07;;;;;;;20.35;67.09;94671.91;4202100;28;20082;-70
2022/08/31 03:07:18;;;;;;;16.20;12.52;;;;;;;20.36;67.12;94671.72;4197099;28;20063;-72
2022/08/31 03:09:20;;;;;;;14.95;11.70;;;;;;;20.39;67.04;94670.44;4198701;28;20094;-75
2022/08/31 03:11:22;;;;;;;14.55;11.93;;;;;;;20.20;67.21;94677.63;4198327;28;20052;-71
2022/08/31 03:13:24;;;;;;;16.85;12.35;;;;;;;20.06;67.84;94674.25;4209521;28;20055;-71
2022/08/31 03:15:27;;;;;;;18.65;12.68;;;;;;;19.91;68.93;94685.22;4210570;28;20558;-59
2022/08/31 03:17:29;;;;;;;18.27;12.52;;;;;;;19.91;69.10;94674.59;4218927;28;20092;-58
2022/08/31 03:19:30;;;;;;;14.95;13.45;;;;;;;19.95;68.88;94678.44;4210943;28;20106;-58
2022/08/31 03:21:32;;;;;;;14.73;13.07;;;;;;;19.95;68.73;94686.41;4209558;28;20143;-57
2022/08/31 03:23:35;;;;;;;19.15;13.57;;;;;;;19.95;68.63;94680.28;4198673;28;20485;-58
2022/08/31 03:25:36;;;;;;;13.45;11.45;;;;;;;19.93;68.41;94679.69;4212446;28;20385;-57
2022/08/31 03:27:40;;;;;;;;;;;;;;;19.94;68.33;94678.66;4213099;28;20524;-56
2022/08/31 03:29:42;;;;;;;15.70;12.27;;;;;;;19.96;68.45;94674.75;4211873;28;19973;-58
2022/08/31 03:31:43;;;;;;;18.73;11.77;;;;;;;20.04;68.06;94671.00;4211620;28;20516;-57
2022/08/31 03:33:45;;;;;;;13.68;11.10;;;;;;;20.08;67.89;94672.19;4212507;28;20480;-56
2022/08/31 03:35:46;;;;;;;14.45;12.40;;;;;;;20.14;67.63;94673.97;4212372;28;20109;-58
2022/08/31 03:37:48;;;;;;;15.15;11.23;;;;;;;20.18;67.45;94669.84;4211897;28;20173;-59
2022/08/31 03:39:50;;;;;;;14.18;11.73;;;;;;;20.22;67.16;94671.03;4198603;28;20482;-57
2022/08/31 03:41:52;;;;;;;16.13;11.40;;;;;;;20.24;66.90;94668.13;4212747;28;20388;-58
2022/08/31 03:43:54;;;;;;;14.00;10.75;;;;;;;20.24;66.82;94668.97;4211140;28;20048;-59
2022/08/31 03:45:56;;;;;;;16.00;11.68;;;;;;;20.24;66.81;94676.13;4199885;28;20446;-59
2022/08/31 03:47:58;;;;;;;16.08;11.75;;;;;;;20.23;66.42;94671.84;4212286;28;20123;-58
2022/08/31 03:50:02;;;;;;;16.15;11.45;;;;;;;20.20;66.43;94674.97;4212579;28;20059;-59
2022/08/31 03:52:04;;;;;;;16.27;12.02;;;;;;;19.82;67.35;94676.69;4209924;28;20114;-60
2022/08/31 03:54:07;;;;;;;13.90;11.45;;;;;;;19.64;68.25;94685.41;4201135;28;20458;-59
2022/08/31 03:56:08;;;;;;;19.73;12.32;;;;;;;19.40;69.31;94678.19;4204787;28;20052;-59
2022/08/31 03:58:10;;;;;;;16.85;12.88;;;;;;;19.37;69.79;94678.63;4197161;28;20048;-58
2022/08/31 04:00:13;;;;;;;20.38;13.13;;;;;;;19.42;69.70;94684.09;4197639;28;20139;-58
2022/08/31 04:02:14;;;;;;;20.42;13.73;;;;;;;19.20;71.13;94687.09;4197254;28;20059;-59
2022/08/31 04:04:16;;;;;;;17.73;14.05;;;;;;;18.79;72.48;94683.00;4205384;28;20109;-63
2022/08/31 04:06:18;;;;;;;19.15;14.68;;;;;;;18.58;73.66;94686.72;4200823;28;20753;-60
2022/08/31 04:08:20;;;;;;;19.35;14.73;;;;;;;18.28;74.88;94689.03;4196732;28;20566;-62
2022/08/31 04:10:22;;;;;;;21.85;14.95;;;;;;;18.07;75.66;94684.78;4197118;28;20783;-60
2022/08/31 04:12:24;;;;;;;18.92;14.95;;;;;;;17.88;76.59;94685.63;4195624;28;20052;-58
2022/08/31 04:14:25;;;;;;;19.73;16.38;;;;;;;17.62;77.40;94684.56;4196015;28;20052;-57
2022/08/31 04:16:27;;;;;;;21.13;16.38;;;;;;;17.55;78.12;94691.66;4198047;28;20044;-58
2022/08/31 04:18:29;;;;;;;19.38;16.02;;;;;;;17.57;78.08;94689.63;4212168;28;20113;-58
2022/08/31 04:20:39;;;;;;;22.92;16.80;;;;;;;17.59;78.20;94683.16;4212127;28;20048;-59
2022/08/31 04:22:41;;;;;;;23.08;16.05;;;;;;;17.58;78.08;94685.97;4211344;28;20101;-58
2022/08/31 04:24:42;;;;;;;21.60;16.17;;;;;;;17.78;77.59;94680.69;4212204;28;20101;-60
2022/08/31 04:26:44;;;;;;;22.23;16.60;;;;;;;17.65;77.75;94681.50;4211530;28;20048;-59
2022/08/31 04:28:46;;;;;;;19.17;15.77;;;;;;;17.77;78.04;94687.81;4207187;28;20045;-58
2022/08/31 04:30:49;;;;;;;20.05;16.02;;;;;;;18.04;77.23;94684.38;4195336;28;20052;-59
2022/08/31 04:32:52;;;;;;;25.55;18.20;;;;;;;18.29;76.01;94681.91;4205631;28;20052;-58
2022/08/31 04:34:54;;;;;;;21.55;16.58;;;;;;;18.34;74.90;94682.09;4198502;28;20048;-59
2022/08/31 04:36:57;;;;;;;27.40;16.63;;;;;;;18.34;75.12;94680.25;4210468;28;20044;-57
2022/08/31 04:39:00;;;;;;;26.88;16.05;;;;;;;18.35;75.45;94689.03;4203043;28;20106;-57
2022/08/31 04:41:08;;;;;;;22.42;17.00;;;;;;;18.48;74.89;94685.53;4203655;28;20087;-61
2022/08/31 04:43:10;;;;;;;22.98;15.63;;;;;;;18.58;74.16;94689.38;4195041;28;20060;-60
2022/08/31 04:45:13;;;;;;;21.00;15.25;;;;;;;18.70;73.65;94694.03;4206269;28;20078;-59
2022/08/31 04:47:14;;;;;;;21.10;15.32;;;;;;;18.80;73.38;94691.78;4211359;28;20081;-59
2022/08/31 04:49:16;;;;;;;18.55;14.63;;;;;;;18.93;72.61;94690.91;4211326;28;20051;-60
2022/08/31 04:51:27;;;;;;;18.92;14.05;;;;;;;19.09;72.07;94702.91;4211020;28;20451;-66
2022/08/31 04:53:29;;;;;;;21.17;14.55;;;;;;;19.27;71.79;94689.72;4210480;28;20521;-60
2022/08/31 04:55:30;;;;;;;18.05;13.48;;;;;;;19.48;70.74;94696.53;4211395;28;20055;-60
2022/08/31 04:57:34;;;;;;;16.30;11.98;;;;;;;19.70;69.99;94689.06;4211216;28;20036;-59
2022/08/31 04:59:36;;;;;;;17.17;13.40;;;;;;;19.88;69.18;94685.66;4210160;28;20059;-60
2022/08/31 05:01:41;;;;;;;17.95;12.48;;;;;;;20.02;68.32;94686.34;4209160;28;20109;-62
2022/08/31 05:03:44;;;;;;;17.95;13.57;;;;;;;20.13;67.75;94679.50;4205618;28;20048;-59
2022/08/31 05:05:47;;;;;;;16.48;12.20;;;;;;;20.24;67.77;94676.13;4204684;28;20047;-61
2022/08/31 05:07:49;;;;;;;;;;;;;;;20.35;67.29;94685.22;4198700;28;20040;-60
2022/08/31 05:09:51;;;;;;;19.10;14.05;;;;;;;20.40;66.87;94683.53;4207430;28;19924;-59
2022/08/31 05:11:54;;;;;;;17.58;13.25;;;;;;;20.43;66.44;94682.28;4205270;28;20044;-64
2022/08/31 05:13:57;;;;;;;16.85;13.05;;;;;;;20.36;66.75;94678.88;4203126;28;20113;-60
2022/08/31 05:15:59;;;;;;;18.27;12.75;;;;;;;20.22;67.15;94675.56;4201672;28;20057;-63
2022/08/31 05:18:01;;;;;;;15.25;11.93;;;;;;;20.23;67.44;94679.81;4205075;28;20062;-64
2022/08/31 05:20:04;;;;;;;17.73;12.38;;;;;;;20.37;67.14;94675.19;4203584;28;20054;-63
2022/08/31 05:22:06;;;;;;;21.27;12.50;;;;;;;20.51;66.52;94675.88;4200669;28;20117;-63
2022/08/31 05:24:10;;;;;;;23.33;12.23;;;;;;;20.65;66.21;94677.41;4197235;28;20048;-62
2022/08/31 05:26:20;;;;;;;19.15;12.02;;;;;;;20.79;65.68;94678.84;4200092;28;20123;-64
2022/08/31 05:28:27;;;;;;;19.27;12.82;;;;;;;20.94;65.48;94680.31;4206966;28;20044;-62
2022/08/31 05:30:28;;;;;;;16.83;13.40;;;;;;;21.00;65.16;94674.09;4206547;28;20055;-66
2022/08/31 05:32:30;;;;;;;18.02;12.05;;;;;;;21.04;65.21;94664.63;4207411;28;20727;-62
2022/08/31 05:34:34;;;;;;;17.35;13.55;;;;;;;20.85;65.59;94669.16;4197904;28;20060;-63
2022/08/31 05:36:36;;;;;;;17.67;13.00;;;;;;;20.74;65.62;94670.72;4196591;28;20449;-64
2022/08/31 05:38:38;;;;;;;15.73;12.93;;;;;;;20.68;66.00;94668.94;4195024;28;20056;-65
2022/08/31 05:40:40;;;;;;;16.63;14.20;;;;;;;20.62;66.46;94661.84;4196032;28;20676;-64
2022/08/31 05:42:42;;;;;;;20.55;12.65;;;;;;;20.62;66.22;94669.84;4211442;28;20119;-65
2022/08/31 05:44:43;;;;;;;19.85;12.43;;;;;;;20.76;66.13;94667.84;4201359;28;20626;-65
2022/08/31 05:46:45;;;;;;;18.85;12.10;;;;;;;20.95;65.91;94658.81;4210579;28;20480;-64
2022/08/31 05:49:05;;;;;;;14.18;12.70;;;;;;;21.22;65.20;94653.91;4203170;28;20135;-63
2022/08/31 05:51:11;;;;;;;16.92;12.23;;;;;;;21.42;64.20;94655.53;4211528;28;20054;-65
2022/08/31 05:53:14;;;;;;;21.13;13.10;;;;;;;21.58;63.65;94652.22;4209436;28;20109;-64
2022/08/31 05:55:15;;;;;;;17.48;12.05;;;;;;;21.74;63.18;94652.59;4210301;28;20628;-65
2022/08/31 05:57:17;;;;;;;15.63;12.60;;;;;;;21.81;62.81;94648.78;4211147;28;20043;-64
2022/08/31 05:59:21;;;;;;;16.15;13.05;;;;;;;21.93;62.48;94651.44;4210829;28;20090;-64
2022/08/31 06:01:36;;;;;;;19.38;12.57;;;;;;;22.05;61.99;94651.47;4210278;28;20101;-64
2022/08/31 06:03:38;;;;;;;20.10;11.80;;;;;;;22.16;61.97;94649.84;4198565;28;20086;-64
2022/08/31 06:05:40;;;;;;;17.85;11.43;;;;;;;22.26;61.43;94650.91;4211554;28;20113;-65
2022/08/31 06:07:43;;;;;;;15.50;11.77;;;;;;;22.28;60.85;94650.66;4210601;28;20052;-64
2022/08/31 06:09:44;;;;;;;20.25;11.98;;;;;;;22.11;61.28;94652.38;4210755;28;20285;-63
2022/08/31 06:11:46;;;;;;;14.35;10.93;;;;;;;21.77;62.33;94655.63;4211269;28;20055;-64
2022/08/31 06:13:50;;;;;;;16.45;10.80;;;;;;;21.87;62.32;94652.38;4210743;28;20663;-63
2022/08/31 06:15:52;;;;;;;13.98;10.57;;;;;;;22.07;62.03;94649.38;4210827;28;20539;-61
2022/08/31 06:17:54;;;;;;;19.20;11.45;;;;;;;22.25;61.26;94641.28;4210748;28;20048;-62
2022/08/31 06:19:56;;;;;;;18.77;11.85;;;;;;;22.40;61.00;94648.00;4210989;28;20097;-61
2022/08/31 06:21:58;;;;;;;21.38;11.20;;;;;;;22.42;61.33;94641.38;4207598;28;20060;-63
2022/08/31 06:24:03;;;;;;;18.92;11.10;;;;;;;22.59;60.97;94641.47;4204025;28;20097;-62
2022/08/31 06:26:06;;;;;;;13.40;10.23;;;;;;;22.53;60.97;94636.25;4194437;28;20452;-60
2022/08/31 06:28:08;;;;;;;15.65;10.23;;;;;;;22.24;61.39;94644.16;4194444;28;20049;-62
2022/08/31 06:30:10;;;;;;;15.93;11.07;;;;;;;21.91;62.61;94637.53;4198772;28;20060;-63
2022/08/31 06:32:13;;;;;;;15.95;11.13;;;;;;;21.93;62.79;94643.44;4198586;28;20870;-61
2022/08/31 06:34:17;;;;;;;16.40;10.82;;;;;;;22.07;62.34;94644.03;4198539;28;20052;-61
2022/08/31 06:36:20;;;;;;;17.50;11.35;;;;;;;21.98;63.23;94643.56;4199294;28;20412;-60
2022/08/31 06:38:22;;;;;;;17.23;12.40;;;;;;;21.93;63.71;94648.78;4196982;28;20098;-62
2022/08/31 06:40:27;;;;;;;16.92;12.15;;;;;;;21.54;64.45;94651.03;4202593;28;20105;-60
2022/08/31 06:42:29;;;;;;;17.33;13.15;;;;;;;21.48;64.76;94651.94;4210802;28;20052;-62
2022/08/31 06:44:31;;;;;;;16.05;11.88;;;;;;;21.43;65.40;94649.16;4208791;28;20059;-61
2022/08/31 06:46:34;;;;;;;18.63;12.30;;;;;;;21.65;64.98;94646.78;4196602;28;20049;-62
2022/08/31 06:48:37;;;;;;;17.80;12.20;;;;;;;21.79;64.58;94650.03;4203638;28;20051;-61
2022/08/31 06:50:40;;;;;;;23.20;13.45;;;;;;;21.94;64.18;94650.41;4210476;28;20460;-60
2022/08/31 06:52:42;;;;;;;22.58;12.73;;;;;;;22.18;63.75;94653.09;4203209;28;20049;-65
2022/08/31 06:54:43;;;;;;;16.05;11.27;;;;;;;22.13;63.54;94651.09;4207077;28;20048;-63
2022/08/31 06:56:45;;;;;;;18.92;11.60;;;;;;;22.28;63.26;94654.16;4202732;28;20547;-61
2022/08/31 06:58:48;;;;;;;13.30;11.35;;;;;;;22.49;62.85;94652.72;4199330;28;20093;-61
2022/08/31 07:00:57;;;;;;;14.65;11.00;;;;;;;22.24;62.68;94660.19;4192722;28;20048;-62
2022/08/31 07:03:21;;;;;;;14.18;11.10;;;;;;;22.27;63.21;94649.06;4201388;28;20143;-64
2022/08/31 07:05:21;;;;;;;15.98;10.23;;;;;;;22.52;62.63;94653.31;4197822;28;20066;-63
2022/08/31 07:07:25;;;;;;;13.13;10.07;;;;;;;22.62;61.73;94645.53;4205433;28;20044;-61
2022/08/31 07:09:27;;;;;;;14.13;10.23;;;;;;;22.59;61.41;94651.34;4210882;28;20600;-62
2022/08/31 07:11:37;;;;;;;13.82;9.55;;;;;;;22.26;61.82;94652.75;4210019;28;20098;-60
2022/08/31 07:13:44;;;;;;;15.25;10.70;;;;;;;22.08;62.66;94654.47;4196878;28;20526;-61
2022/08/31 07:15:46;;;;;;;14.52;10.23;;;;;;;22.18;63.32;94656.56;4207732;28;20052;-60
2022/08/31 07:17:48;;;;;;;11.75;10.13;;;;;;;22.51;62.44;94649.03;4200134;28;20546;-63
2022/08/31 07:19:50;;;;;;;15.15;11.27;;;;;;;22.78;61.34;94651.97;4211600;28;20632;-61
2022/08/31 07:21:55;;;;;;;14.55;11.23;;;;;;;22.93;61.22;94654.97;4208247;27;20049;-61
2022/08/31 07:23:59;;;;;;;16.23;10.35;;;;;;;23.10;60.49;94661.22;4213395;28;20081;-62
2022/08/31 07:26:06;;;;;;;13.90;10.68;;;;;;;23.33;59.82;94653.34;4213533;28;20087;-61
2022/08/31 07:28:10;;;;;;;15.70;11.02;;;;;;;23.45;59.62;94656.78;4212965;28;20048;-61
2022/08/31 07:30:12;;;;;;;16.10;10.57;;;;;;;23.58;59.38;94656.47;4200371;28;20051;-59
2022/08/31 07:32:14;;;;;;;19.40;12.70;;;;;;;23.46;59.47;94661.06;4212422;28;20051;-62
2022/08/31 07:34:24;;;;;;;14.23;10.98;;;;;;;23.51;59.31;94661.97;4212057;28;20056;-62
2022/08/31 07:36:26;;;;;;;14.35;11.10;;;;;;;23.60;58.99;94659.72;4211159;28;20048;-66
2022/08/31 07:43:09;;;;;;;12.10;9.43;;;;;;;23.23;59.76;94656.63;4204929;28;20420;-62
2022/08/31 07:45:20;;;;;;;17.33;10.63;;;;;;;23.44;59.86;94652.47;4211567;28;20136;-62
2022/08/31 07:47:27;;;;;;;17.30;12.35;;;;;;;23.68;59.55;94663.84;4211606;28;20173;-60
2022/08/31 07:49:29;;;;;;;;;;;;;;;23.81;58.79;94658.22;4205608;28;20067;-62
2022/08/31 07:51:31;;;;;;;14.70;9.80;;;;;;;23.75;59.12;94658.34;4207995;28;19974;-62
2022/08/31 07:53:40;;;;;;;14.52;10.82;;;;;;;23.86;58.59;94652.16;4201799;28;20493;-62
2022/08/31 07:55:44;;;;;;;19.08;11.20;;;;;;;24.01;58.00;94655.06;4205210;28;20064;-63
2022/08/31 07:57:46;;;;;;;12.95;9.27;;;;;;;23.69;58.52;94654.78;4203398;28;20105;-63
2022/08/31 07:59:53;;;;;;;13.93;10.00;;;;;;;23.89;58.32;94652.44;4205083;28;20051;-71
2022/08/31 08:01:55;;;;;;;11.73;9.40;;;;;;;23.91;57.51;94649.53;4206824;28;20052;-64
2022/08/31 08:04:00;;;;;;;17.33;9.60;;;;;;;23.67;58.58;94655.00;4201615;28;20040;-66
2022/08/31 08:06:05;;;;;;;12.75;9.73;;;;;;;23.66;58.97;94655.25;4210648;28;20057;-70
2022/08/31 08:08:10;;;;;;;17.08;10.32;;;;;;;23.86;58.58;94644.94;4209630;28;20082;-68
2022/08/31 08:10:20;;;;;;;13.95;10.10;;;;;;;24.08;58.00;94641.50;4204409;28;20056;-69
2022/08/31 08:12:23;;;;;;;12.57;9.50;;;;;;;24.30;57.72;94633.53;4200557;28;20048;-66
2022/08/31 08:14:26;;;;;;;15.23;9.38;;;;;;;24.55;57.12;94634.97;4206636;28;20060;-68
2022/08/31 08:16:31;;;;;;;16.48;10.75;;;;;;;24.65;56.15;94641.28;4203302;28;20055;-66
2022/08/31 08:18:33;;;;;;;17.38;12.45;;;;;;;24.62;56.32;94647.13;4210427;28;20044;-69
2022/08/31 08:20:36;;;;;;;18.88;11.15;;;;;;;24.56;56.53;94640.06;4202995;28;20060;-67
2022/08/31 08:22:41;;;;;;;10.57;9.48;;;;;;;24.62;56.03;94635.59;4213245;28;20535;-69
2022/08/31 08:24:57;;;;;;;13.10;9.25;;;;;;;24.65;55.75;94632.41;4206389;28;20086;-68
2022/08/31 08:26:59;;;;;;;13.98;9.85;;;;;;;24.49;56.23;94634.91;4205501;28;20490;-67
2022/08/31 08:29:04;;;;;;;;;;;;;;;24.64;55.94;94634.28;4198347;28;20052;-67
2022/08/31 08:31:12;;;;;;;11.98;9.43;;;;;;;24.62;55.39;94630.25;4198005;28;19974;-64
2022/08/31 08:33:14;;;;;;;13.30;8.95;;;;;;;24.91;55.43;94638.91;4210493;28;20067;-61
2022/08/31 08:35:16;;;;;;;14.80;8.65;;;;;;;25.21;55.11;94638.47;4209603;28;20097;-62
2022/08/31 08:37:17;;;;;;;14.88;8.98;;;;;;;25.47;54.09;94636.88;4202939;28;20671;-61
2022/08/31 08:39:41;;;;;;;12.07;9.55;;;;;;;25.68;53.58;94637.03;4211812;28;20110;-59
2022/08/31 08:41:45;;;;;;;12.18;8.90;;;;;;;25.83;52.91;94636.34;4206185;28;20105;-60
2022/08/31 08:43:54;;;;;;;11.10;9.02;;;;;;;25.66;52.89;94628.44;4211695;28;20056;-61
2022/08/31 08:46:01;;;;;;;12.82;8.30;;;;;;;25.17;53.09;94629.28;4205029;28;20166;-61
2022/08/31 08:48:26;;;;;;;10.73;8.27;;;;;;;24.76;54.41;94631.50;4201312;28;20496;-65
2022/08/31 08:50:29;;;;;;;12.55;9.23;;;;;;;24.71;54.19;94628.75;4178521;28;20041;-68
2022/08/31 08:52:37;;;;;;;;;;;;;;;24.79;54.42;94628.31;4200709;28;20412;-66
2022/08/31 08:54:44;;;;;;;17.48;8.65;;;;;;;25.00;53.61;94624.00;4203632;28;20616;-70
2022/08/31 08:56:47;;;;;;;8.82;7.80;;;;;;;25.30;52.78;94612.84;4201346;28;20635;-61
2022/08/31 08:58:49;;;;;;;11.75;8.13;;;;;;;25.48;51.86;94613.53;4206232;28;20040;-65
2022/08/31 09:00:53;;;;;;;20.00;9.20;;;;;;;25.71;50.91;94613.19;4196504;28;20044;-65
2022/08/31 09:03:06;;;;;;;;;;;;;;;25.87;50.59;94600.69;4196851;28;20052;-64
2022/08/31 09:05:20;;;;;;;10.15;7.43;;;;;;;26.06;50.19;94597.66;4210072;28;19920;-66
2022/08/31 09:07:55;;;;;;;17.48;8.02;;;;;;;26.29;49.81;94594.56;4205007;28;20048;-73
2022/08/31 09:10:03;;;;;;;9.68;7.57;;;;;;;26.47;49.21;94596.00;4198671;28;20059;-70
2022/08/31 09:12:19;;;;;;;14.40;8.38;;;;;;;26.53;48.50;94586.09;4208849;28;20686;-70
2022/08/31 09:14:35;;;;;;;11.20;8.77;;;;;;;26.70;49.35;94594.00;4198022;28;20061;-67
2022/08/31 09:17:00;;;;;;;11.73;7.90;;;;;;;26.46;48.64;94597.09;4198762;28;20752;-64
2022/08/31 09:19:05;;;;;;;14.27;7.47;;;;;;;25.97;49.41;94591.97;4201135;28;20049;-65
2022/08/31 09:21:29;;;;;;;9.90;6.95;;;;;;;25.88;49.08;94583.59;4208391;28;20078;-65
2022/08/31 09:23:36;;;;;;;14.18;9.00;;;;;;;25.83;49.98;94585.38;4215136;28;20047;-64
2022/08/31 09:25:50;;;;;;;12.32;8.35;;;;;;;25.99;49.82;94584.47;4204832;28;20048;-63
2022/08/31 09:27:58;;;;;;;9.60;8.60;;;;;;;26.18;49.55;94582.16;4206073;28;20060;-65
2022/08/31 09:30:01;;;;;;;10.43;8.13;;;;;;;26.45;48.51;94579.34;4208972;28;20056;-63
2022/08/31 09:32:09;;;;;;;11.13;7.28;;;;;;;26.72;48.95;94579.22;4194886;28;20610;-62
2022/08/31 09:34:30;;;;;;;11.15;8.25;;;;;;;26.91;47.95;94579.56;4204877;28;20104;-66
2022/08/31 09:36:39;;;;;;;11.90;8.13;;;;;;;26.85;47.47;94583.31;4196592;28;20090;-64
2022/08/31 09:38:45;;;;;;;11.68;7.63;;;;;;;27.05;47.47;94589.81;4200216;28;20045;-64
2022/08/31 09:40:48;;;;;;;23.33;8.70;;;;;;;27.17;47.64;94576.94;4203859;28;20143;-67
2022/08/31 09:43:09;;;;;;;15.38;7.85;;;;;;;27.02;47.21;94569.66;4197597;28;20054;-63